Time;durP1;ratioP1;P1;durP2;ratioP2;P2;SDS_P1;SDS_P2;PMS_P1;PMS_P2;Temp;Humidity;BMP_temperature;BMP_pressure;BME280_temperature;BME280_humidity;BME280_pressure;Samples;Min_cycle;Max_cycle;Signal;HPM_P1;HPM_P2
2021/03/10 00:00:18;;;;;;;31.10;17.90;;;;;;;3.55;92.36;101927.56;4999618;28;20480;-71
2021/03/10 00:02:44;;;;;;;31.17;18.15;;;;;;;3.60;92.23;101917.59;5002281;28;20536;-71
2021/03/10 00:05:10;;;;;;;27.52;16.77;;;;;;;3.64;92.10;101915.66;4995138;28;20022;-69
2021/03/10 00:07:37;;;;;;;27.25;17.60;;;;;;;3.72;91.88;101915.25;5001565;28;20078;-71
2021/03/10 00:10:07;;;;;;;25.05;15.85;;;;;;;3.74;91.85;101916.00;5002079;28;20049;-71
2021/03/10 00:12:32;;;;;;;25.23;15.65;;;;;;;3.74;91.21;101916.88;4999765;28;20057;-68
2021/03/10 00:14:58;;;;;;;27.35;16.45;;;;;;;3.71;91.60;101903.81;4978377;28;20052;-70
2021/03/10 00:17:23;;;;;;;27.50;16.10;;;;;;;3.73;91.37;101898.47;4999009;28;20026;-68
2021/03/10 00:19:49;;;;;;;28.73;17.73;;;;;;;3.73;91.83;101898.47;5000183;28;20038;-71
2021/03/10 00:22:14;;;;;;;25.95;16.88;;;;;;;3.74;92.18;101897.53;4981856;28;20041;-68
2021/03/10 00:24:40;;;;;;;26.85;16.63;;;;;;;3.57;91.49;101861.47;5006476;28;20034;-68
2021/03/10 00:27:06;;;;;;;27.92;17.02;;;;;;;3.70;92.16;101886.28;4994878;28;20040;-68
2021/03/10 00:29:31;;;;;;;28.02;17.13;;;;;;;3.17;91.52;101812.53;4996687;28;20060;-69
2021/03/10 00:31:57;;;;;;;29.02;17.23;;;;;;;3.53;92.33;101872.19;5001457;28;20567;-68
2021/03/10 00:34:22;;;;;;;32.33;18.80;;;;;;;3.73;92.01;101895.84;4997302;28;20030;-68
2021/03/10 00:36:48;;;;;;;26.30;17.50;;;;;;;3.72;92.31;101891.50;4998261;28;20030;-68
2021/03/10 00:39:14;;;;;;;26.98;17.73;;;;;;;3.72;92.08;101892.34;4999509;28;20048;-69
2021/03/10 00:41:39;;;;;;;32.53;17.20;;;;;;;3.82;91.46;101896.16;5001893;28;20044;-68
2021/03/10 00:44:05;;;;;;;28.60;18.23;;;;;;;3.78;92.13;101886.72;4997514;28;20763;-68
2021/03/10 00:46:31;;;;;;;26.45;17.05;;;;;;;3.82;92.15;101890.88;5014942;28;20128;-68
2021/03/10 00:48:56;;;;;;;27.13;15.85;;;;;;;3.88;91.23;101889.69;5002539;28;20125;-68
2021/03/10 00:51:22;;;;;;;22.38;15.75;;;;;;;3.91;91.18;101884.25;5005599;28;20038;-68
2021/03/10 00:53:47;;;;;;;23.48;15.40;;;;;;;3.90;91.19;101890.47;5018170;28;20030;-68
2021/03/10 00:56:13;;;;;;;24.15;15.85;;;;;;;3.87;90.62;101876.59;5001648;28;20515;-68
2021/03/10 00:58:38;;;;;;;28.73;15.70;;;;;;;3.96;90.25;101890.16;5002914;28;20030;-69
2021/03/10 01:01:03;;;;;;;22.35;15.18;;;;;;;3.97;90.90;101896.28;5003251;28;20030;-68
2021/03/10 01:03:29;;;;;;;23.73;16.13;;;;;;;4.03;90.21;101885.38;5005267;28;20467;-68
2021/03/10 01:05:55;;;;;;;23.88;15.63;;;;;;;4.05;89.74;101887.94;5009744;28;20026;-68
2021/03/10 01:08:20;;;;;;;27.83;16.40;;;;;;;3.99;90.89;101897.03;5004025;28;20551;-69
2021/03/10 01:10:47;;;;;;;24.55;16.42;;;;;;;3.55;90.13;101826.38;5003492;28;20053;-71
2021/03/10 01:13:13;;;;;;;24.52;15.75;;;;;;;3.81;90.71;101873.34;5001915;28;20099;-71
2021/03/10 01:15:38;;;;;;;24.77;16.05;;;;;;;3.99;89.89;101875.91;5015760;28;20484;-68
2021/03/10 01:18:04;;;;;;;24.42;15.73;;;;;;;3.98;89.55;101885.66;4999678;28;20120;-68
2021/03/10 01:20:29;;;;;;;25.35;15.05;;;;;;;3.62;90.37;101833.06;5004328;28;20037;-68
2021/03/10 01:22:55;;;;;;;22.33;15.10;;;;;;;3.96;90.45;101881.38;4983162;28;21055;-69
2021/03/10 01:25:21;;;;;;;21.13;15.15;;;;;;;3.86;90.28;101864.31;5001590;28;20037;-69
2021/03/10 01:27:46;;;;;;;27.13;16.90;;;;;;;3.95;90.83;101877.00;5002961;28;20037;-69
2021/03/10 01:30:13;;;;;;;21.52;16.42;;;;;;;4.01;90.40;101878.47;5004504;28;20060;-71
2021/03/10 01:32:39;;;;;;;24.60;16.23;;;;;;;4.13;89.65;101883.09;5006800;28;20084;-71
2021/03/10 01:35:06;;;;;;;28.20;16.70;;;;;;;4.16;89.43;101874.13;4996513;28;20038;-71
2021/03/10 01:37:32;;;;;;;25.73;17.13;;;;;;;3.88;90.04;101843.97;5004554;28;20036;-71
2021/03/10 01:39:58;;;;;;;23.98;16.50;;;;;;;4.15;90.18;101886.47;4984739;28;20064;-71
2021/03/10 01:42:24;;;;;;;28.27;17.63;;;;;;;3.87;90.41;101844.91;5002560;28;20041;-71
2021/03/10 01:44:50;;;;;;;31.13;18.55;;;;;;;4.13;90.08;101878.66;5002176;28;20018;-71
2021/03/10 01:47:17;;;;;;;26.70;18.58;;;;;;;4.14;90.68;101876.84;5002959;28;20025;-71
2021/03/10 01:49:43;;;;;;;26.40;17.50;;;;;;;4.17;89.95;101874.03;5002498;28;20033;-71
2021/03/10 01:52:10;;;;;;;26.02;18.25;;;;;;;4.25;90.11;101876.25;5005480;28;20512;-68
2021/03/10 01:54:36;;;;;;;28.23;18.25;;;;;;;4.24;90.43;101871.91;5004234;28;20452;-71
2021/03/10 01:57:02;;;;;;;26.65;17.35;;;;;;;4.03;89.73;101836.97;5016959;28;20129;-71
2021/03/10 01:59:28;;;;;;;28.08;18.85;;;;;;;4.20;90.49;101870.38;4996427;28;20484;-72
2021/03/10 02:01:54;;;;;;;28.10;17.85;;;;;;;3.79;90.84;101795.16;5005092;28;20034;-71
2021/03/10 02:04:19;;;;;;;33.15;19.77;;;;;;;4.12;91.16;101858.44;5004474;28;20358;-71
2021/03/10 02:07:03;;;;;;;31.30;20.00;;;;;;;4.03;91.67;101835.19;5001364;28;20038;-71
2021/03/10 02:10:03;;;;;;;34.30;20.50;;;;;;;3.98;91.48;101822.25;5002030;28;21215;-71
2021/03/10 02:13:16;;;;;;;36.85;21.30;;;;;;;4.07;92.83;101838.50;5001005;28;20658;-71
2021/03/10 02:15:51;;;;;;;31.65;20.35;;;;;;;4.08;92.17;101842.84;4997825;28;20041;-71
2021/03/10 02:18:26;;;;;;;35.13;22.40;;;;;;;4.11;91.85;101840.06;5002269;28;20033;-71
2021/03/10 02:20:57;;;;;;;31.50;21.80;;;;;;;4.10;92.25;101822.50;5000299;28;20026;-71
2021/03/10 02:23:38;;;;;;;36.67;23.05;;;;;;;4.14;92.46;101831.94;5003458;28;20111;-71
2021/03/10 02:26:32;;;;;;;34.53;23.30;;;;;;;4.12;92.58;101831.19;4999043;28;20105;-71
2021/03/10 02:29:02;;;;;;;39.30;24.48;;;;;;;4.09;92.39;101828.72;5017315;28;20358;-71
2021/03/10 02:31:30;;;;;;;37.22;24.08;;;;;;;3.65;93.34;101780.09;5004488;28;20105;-71
2021/03/10 02:33:57;;;;;;;37.78;23.80;;;;;;;3.83;93.62;101809.91;5001215;28;20052;-71
2021/03/10 02:36:25;;;;;;;43.05;25.40;;;;;;;3.74;94.16;101810.38;4999519;28;20041;-71
2021/03/10 02:38:52;;;;;;;42.25;26.08;;;;;;;3.87;94.83;101832.53;5002465;28;20061;-71
2021/03/10 02:41:19;;;;;;;46.08;25.95;;;;;;;3.66;95.40;101803.75;5003868;28;20031;-71
2021/03/10 02:43:47;;;;;;;46.70;28.15;;;;;;;3.74;95.54;101826.22;5001017;28;20034;-71
2021/03/10 02:46:14;;;;;;;44.63;27.10;;;;;;;3.74;95.87;101818.31;4999265;28;20410;-71
2021/03/10 02:48:43;;;;;;;47.83;29.10;;;;;;;3.76;95.65;101819.94;5002293;28;20033;-71
2021/03/10 02:51:09;;;;;;;46.78;28.08;;;;;;;3.77;95.63;101812.88;5003154;28;20022;-71
2021/03/10 02:53:39;;;;;;;53.72;29.88;;;;;;;3.76;96.04;101827.00;5001978;28;20120;-71
2021/03/10 02:56:05;;;;;;;45.45;28.55;;;;;;;3.73;95.51;101814.84;4998131;28;20033;-71
2021/03/10 02:58:31;;;;;;;50.78;30.08;;;;;;;3.70;96.13;101815.00;4970391;28;20037;-71
2021/03/10 03:00:56;;;;;;;50.78;29.88;;;;;;;3.76;95.74;101817.31;5002050;28;20445;-71
2021/03/10 03:03:22;;;;;;;52.08;30.20;;;;;;;3.77;95.56;101800.53;4999701;28;20040;-71
2021/03/10 03:05:47;;;;;;;51.75;29.90;;;;;;;3.64;95.76;101781.03;4999946;28;20255;-71
2021/03/10 03:08:14;;;;;;;55.13;31.75;;;;;;;3.72;96.19;101785.88;4998052;28;20050;-71
2021/03/10 03:10:42;;;;;;;53.33;32.13;;;;;;;3.64;96.49;101787.16;4998956;28;20410;-71
2021/03/10 03:13:11;;;;;;;55.60;32.97;;;;;;;3.51;96.40;101765.00;5001248;28;20030;-71
2021/03/10 03:15:37;;;;;;;64.43;33.55;;;;;;;3.58;96.62;101784.88;4999364;28;20496;-69
2021/03/10 03:18:05;;;;;;;60.53;33.20;;;;;;;3.50;97.06;101789.69;5000412;28;20125;-71
2021/03/10 03:20:30;;;;;;;61.00;34.72;;;;;;;3.55;96.80;101778.88;5001047;28;20030;-71
2021/03/10 03:22:58;;;;;;;66.28;35.33;;;;;;;3.52;97.23;101774.63;4995591;28;20048;-71
2021/03/10 03:25:28;;;;;;;72.43;37.20;;;;;;;3.53;97.50;101773.69;4996575;28;20310;-71
2021/03/10 03:27:56;;;;;;;70.72;37.85;;;;;;;3.54;98.01;101767.47;5000178;28;20151;-71
2021/03/10 03:30:23;;;;;;;;;;;;;;;3.58;98.22;101770.78;5002898;28;20395;-71
2021/03/10 03:32:50;;;;;;;66.80;35.88;;;;;;;3.56;97.84;101762.97;5003127;28;19930;-71
2021/03/10 03:35:16;;;;;;;72.45;36.95;;;;;;;3.60;97.94;101755.72;4998701;28;20172;-71
2021/03/10 03:37:50;;;;;;;75.28;39.03;;;;;;;3.58;97.40;101754.97;4999384;28;20038;-71
2021/03/10 03:40:17;;;;;;;73.18;38.50;;;;;;;3.56;98.43;101762.97;5000195;28;20023;-71
2021/03/10 03:42:43;;;;;;;69.45;37.30;;;;;;;3.58;97.58;101769.03;4985367;28;20026;-69
2021/03/10 03:45:09;;;;;;;70.53;36.92;;;;;;;3.60;97.83;101763.66;4998420;28;20076;-71
2021/03/10 03:47:36;;;;;;;60.95;34.28;;;;;;;3.65;97.43;101766.91;5002514;28;20481;-70
2021/03/10 03:50:03;;;;;;;69.18;35.45;;;;;;;3.63;97.31;101766.13;5000853;28;20117;-71
2021/03/10 03:52:28;;;;;;;65.65;34.92;;;;;;;3.58;97.13;101771.66;5002599;28;20444;-71
2021/03/10 03:54:54;;;;;;;63.53;34.08;;;;;;;3.57;97.47;101767.31;4996980;28;20039;-70
2021/03/10 03:57:19;;;;;;;63.22;35.03;;;;;;;3.53;97.21;101757.84;5001598;28;20029;-69
2021/03/10 03:59:45;;;;;;;60.47;35.20;;;;;;;3.51;97.34;101757.97;5012374;28;20092;-71
2021/03/10 04:02:10;;;;;;;66.78;34.08;;;;;;;3.28;97.22;101718.78;5000328;28;20483;-71
2021/03/10 04:04:36;;;;;;;59.67;33.08;;;;;;;3.55;96.70;101763.91;5000315;28;20464;-71
2021/03/10 04:07:01;;;;;;;66.25;34.58;;;;;;;3.52;96.76;101756.16;4999057;28;20375;-71
2021/03/10 04:09:27;;;;;;;62.25;33.60;;;;;;;3.33;96.55;101720.22;4998859;28;20050;-71
2021/03/10 04:11:53;;;;;;;71.65;34.38;;;;;;;3.48;96.48;101754.63;4983708;28;20765;-71
2021/03/10 04:14:18;;;;;;;71.82;35.53;;;;;;;3.42;97.23;101765.53;5000400;28;20034;-71
2021/03/10 04:16:44;;;;;;;70.20;33.72;;;;;;;2.92;97.14;101681.13;4998469;28;20037;-70
2021/03/10 04:19:10;;;;;;;60.10;33.92;;;;;;;3.39;97.41;101757.75;5000898;28;20404;-71
2021/03/10 04:21:37;;;;;;;70.22;35.22;;;;;;;3.33;97.69;101756.31;5002238;28;20096;-71
2021/03/10 04:24:03;;;;;;;63.20;33.67;;;;;;;3.30;98.15;101754.69;5004303;28;20497;-70
2021/03/10 04:26:28;;;;;;;71.93;36.00;;;;;;;3.09;98.04;101722.44;5002351;28;20378;-71
2021/03/10 04:28:54;;;;;;;74.90;37.17;;;;;;;3.31;98.22;101764.31;5004125;28;20049;-71
2021/03/10 04:31:19;;;;;;;79.85;38.97;;;;;;;3.30;98.26;101749.44;5006700;28;20081;-71
2021/03/10 04:33:45;;;;;;;75.72;38.92;;;;;;;3.21;98.63;101737.59;4999770;28;20476;-71
2021/03/10 04:36:10;;;;;;;77.00;38.85;;;;;;;3.27;98.73;101748.72;5003738;28;20038;-71
2021/03/10 04:38:36;;;;;;;78.22;39.72;;;;;;;3.27;98.88;101744.31;5004949;28;20108;-70
2021/03/10 04:41:01;;;;;;;74.32;39.25;;;;;;;3.33;98.52;101737.84;5005342;28;20084;-71
2021/03/10 04:43:27;;;;;;;81.78;41.30;;;;;;;3.32;98.83;101734.38;5003491;28;20026;-70
2021/03/10 04:45:53;;;;;;;82.70;40.45;;;;;;;3.25;98.14;101721.59;5002494;28;20042;-70
2021/03/10 04:48:19;;;;;;;81.15;41.67;;;;;;;3.33;98.52;101736.03;5003764;28;20348;-70
2021/03/10 04:50:44;;;;;;;84.88;42.08;;;;;;;3.24;99.15;101722.53;5003873;28;21856;-70
2021/03/10 04:53:10;;;;;;;93.18;45.03;;;;;;;3.31;99.78;101737.06;5002393;28;20072;-70
2021/03/10 04:55:35;;;;;;;87.38;44.17;;;;;;;3.31;99.19;101730.03;5002263;28;20887;-70
2021/03/10 04:58:01;;;;;;;87.93;44.28;;;;;;;3.28;99.47;101729.31;5004258;28;20041;-70
2021/03/10 05:00:27;;;;;;;94.45;45.47;;;;;;;3.31;99.36;101732.66;5000886;28;20496;-71
2021/03/10 05:02:52;;;;;;;98.07;47.58;;;;;;;3.06;99.27;101697.03;5005481;28;20496;-71
2021/03/10 05:05:18;;;;;;;91.93;46.33;;;;;;;3.04;99.64;101683.13;5001484;28;20033;-71
2021/03/10 05:07:44;;;;;;;96.72;47.45;;;;;;;3.34;99.44;101732.47;4988064;28;20038;-71
2021/03/10 05:10:09;;;;;;;97.10;46.95;;;;;;;3.32;99.62;101722.94;5003343;28;20141;-70
2021/03/10 05:12:36;;;;;;;103.57;51.58;;;;;;;3.32;99.95;101721.19;5004515;28;20046;-70
2021/03/10 05:15:03;;;;;;;104.70;51.58;;;;;;;3.31;100.00;101727.38;4999344;28;20026;-71
2021/03/10 05:17:28;;;;;;;108.85;51.35;;;;;;;3.38;99.80;101725.25;5003728;28;20030;-70
2021/03/10 05:19:55;;;;;;;108.78;52.90;;;;;;;3.39;99.68;101719.06;4998819;28;20496;-71
2021/03/10 05:22:21;;;;;;;108.78;52.03;;;;;;;3.41;99.97;101716.31;5004036;28;20080;-71
2021/03/10 05:24:47;;;;;;;105.05;52.20;;;;;;;3.26;100.00;101703.03;5000717;28;20042;-71
2021/03/10 05:27:13;;;;;;;110.03;53.80;;;;;;;3.40;99.88;101718.09;5000489;28;20038;-70
2021/03/10 05:29:39;;;;;;;111.70;53.78;;;;;;;3.30;99.84;101699.31;4998142;28;20038;-71
2021/03/10 05:32:05;;;;;;;117.45;55.33;;;;;;;3.40;100.00;101714.63;5004108;28;20140;-70
2021/03/10 05:34:31;;;;;;;109.75;55.03;;;;;;;3.38;100.00;101722.63;5003483;28;20089;-71
2021/03/10 05:36:56;;;;;;;119.45;57.90;;;;;;;3.22;100.00;101699.72;5001773;28;20026;-69
2021/03/10 05:39:22;;;;;;;112.50;55.45;;;;;;;3.03;100.00;101664.72;5002383;28;20030;-70
2021/03/10 05:41:48;;;;;;;115.35;57.53;;;;;;;3.43;100.00;101727.66;5005126;28;20064;-71
2021/03/10 05:44:14;;;;;;;108.60;54.78;;;;;;;3.43;100.00;101725.84;5002667;28;21823;-70
2021/03/10 05:46:40;;;;;;;109.18;57.42;;;;;;;3.49;99.87;101716.72;4999273;28;20111;-70
2021/03/10 05:49:06;;;;;;;112.57;59.00;;;;;;;3.46;99.95;101724.84;5018317;28;20026;-70
2021/03/10 05:51:32;;;;;;;107.40;55.75;;;;;;;3.40;99.83;101706.69;5002403;28;20037;-70
2021/03/10 05:53:59;;;;;;;108.57;57.17;;;;;;;3.19;99.72;101665.59;4997880;28;20033;-70
2021/03/10 05:56:26;;;;;;;105.20;56.08;;;;;;;3.57;99.44;101717.16;4998826;28;20041;-70
2021/03/10 05:59:01;;;;;;;108.07;56.05;;;;;;;3.55;99.80;101715.53;4999889;28;20383;-71
2021/03/10 06:01:27;;;;;;;113.13;58.15;;;;;;;3.34;99.69;101663.88;4999975;28;20519;-69
2021/03/10 06:04:19;;;;;;;101.72;54.33;;;;;;;3.65;99.11;101700.91;5000860;28;20032;-70
2021/03/10 06:06:44;;;;;;;106.60;56.75;;;;;;;3.63;99.51;101697.50;5001587;28;20042;-71
2021/03/10 06:09:11;;;;;;;107.20;55.25;;;;;;;3.59;99.12;101698.59;5003192;28;20513;-71
2021/03/10 06:11:36;;;;;;;108.53;55.35;;;;;;;3.56;98.85;101693.47;5018943;28;20058;-71
2021/03/10 06:14:06;;;;;;;106.45;55.60;;;;;;;3.53;98.86;101684.78;5001281;28;20336;-71
2021/03/10 06:16:32;;;;;;;102.05;53.78;;;;;;;3.48;98.96;101668.38;5000336;28;20494;-71
2021/03/10 06:19:05;;;;;;;101.50;54.67;;;;;;;3.66;98.83;101700.81;5017649;28;20057;-71
2021/03/10 06:21:31;;;;;;;102.05;53.78;;;;;;;3.60;98.39;101680.03;5003493;28;20488;-71
2021/03/10 06:24:01;;;;;;;95.90;54.10;;;;;;;3.64;99.15;101692.13;4999267;28;20034;-71
2021/03/10 06:26:29;;;;;;;99.57;53.72;;;;;;;3.70;98.55;101690.06;4980714;28;20053;-70
2021/03/10 06:28:56;;;;;;;103.38;55.05;;;;;;;3.74;98.36;101689.81;4999294;28;20029;-71
2021/03/10 06:31:34;;;;;;;92.47;54.00;;;;;;;3.74;98.79;101678.38;5018034;28;20034;-71
2021/03/10 06:34:07;;;;;;;91.93;52.75;;;;;;;3.70;98.56;101684.78;5000798;28;20520;-71
2021/03/10 06:36:53;;;;;;;96.53;52.90;;;;;;;3.59;98.00;101666.91;5001150;28;20064;-71
2021/03/10 06:39:27;;;;;;;96.43;51.85;;;;;;;3.50;98.20;101641.91;4997559;28;20404;-70
2021/03/10 06:41:53;;;;;;;95.30;53.53;;;;;;;3.76;98.64;101680.00;5012292;28;20025;-71
2021/03/10 06:44:27;;;;;;;93.57;52.13;;;;;;;3.80;98.45;101680.69;5018241;28;20033;-71
2021/03/10 06:46:58;;;;;;;98.10;53.42;;;;;;;3.64;98.25;101649.88;4999727;28;20033;-70
2021/03/10 06:49:25;;;;;;;90.00;52.85;;;;;;;3.86;98.79;101687.41;4997660;28;20108;-71
2021/03/10 06:51:53;;;;;;;93.83;52.53;;;;;;;3.81;98.38;101688.50;5000633;28;20060;-71
2021/03/10 06:54:18;;;;;;;93.35;51.85;;;;;;;3.74;98.78;101686.31;5019101;28;20673;-71
2021/03/10 06:56:44;;;;;;;93.40;52.67;;;;;;;3.73;98.94;101679.34;4997517;28;20036;-71
2021/03/10 06:59:09;;;;;;;92.75;53.03;;;;;;;3.87;98.88;101691.75;5000461;28;20253;-71
2021/03/10 07:01:44;;;;;;;93.25;54.35;;;;;;;3.91;98.16;101698.56;4989584;28;20374;-71
2021/03/10 07:04:13;;;;;;;89.28;51.80;;;;;;;3.93;98.27;101696.69;4983318;28;20038;-71
2021/03/10 07:06:40;;;;;;;94.80;53.22;;;;;;;3.94;98.32;101693.94;5001242;28;20431;-71
2021/03/10 07:09:17;;;;;;;90.95;53.15;;;;;;;3.80;97.89;101664.84;5001231;28;20034;-69
2021/03/10 07:11:43;;;;;;;88.80;50.85;;;;;;;3.82;97.28;101660.31;4995644;28;20117;-70
2021/03/10 07:14:13;;;;;;;90.25;50.55;;;;;;;4.01;97.33;101688.28;5014503;28;20092;-69
2021/03/10 07:16:39;;;;;;;89.13;51.30;;;;;;;4.09;96.98;101694.00;4998198;28;20045;-69
2021/03/10 07:19:06;;;;;;;87.50;49.60;;;;;;;4.05;96.93;101688.03;5005809;28;20026;-69
2021/03/10 07:21:45;;;;;;;83.88;48.90;;;;;;;4.11;97.58;101694.75;5006070;28;20033;-69
2021/03/10 07:24:17;;;;;;;80.80;49.00;;;;;;;3.82;96.63;101632.13;5005810;28;20124;-69
2021/03/10 07:26:44;;;;;;;91.85;46.50;;;;;;;4.08;96.39;101679.09;4999033;28;20034;-69
2021/03/10 07:29:11;;;;;;;79.15;48.78;;;;;;;3.93;96.68;101652.63;5006639;28;20113;-69
2021/03/10 07:31:37;;;;;;;81.03;48.30;;;;;;;4.16;97.09;101684.75;5002229;28;20046;-69
2021/03/10 07:34:04;;;;;;;84.05;49.35;;;;;;;4.22;96.15;101687.03;4998088;28;20030;-71
2021/03/10 07:36:41;;;;;;;79.28;46.83;;;;;;;4.27;96.08;101684.13;5000477;28;20038;-70
2021/03/10 07:39:32;;;;;;;83.65;49.85;;;;;;;4.23;96.58;101685.25;5019057;28;20022;-71
2021/03/10 07:42:13;;;;;;;80.82;48.28;;;;;;;4.31;96.21;101688.28;5016343;28;20030;-71
2021/03/10 07:44:40;;;;;;;82.22;49.58;;;;;;;4.31;96.54;101696.22;5001570;28;20034;-71
2021/03/10 07:47:08;;;;;;;95.07;51.88;;;;;;;4.28;96.60;101675.25;4995256;28;20030;-71
2021/03/10 07:49:35;;;;;;;81.85;47.42;;;;;;;4.44;96.09;101693.69;5003214;28;20053;-72
2021/03/10 07:52:11;;;;;;;94.05;50.15;;;;;;;4.50;96.40;101688.03;5002908;28;20026;-72
2021/03/10 07:54:39;;;;;;;82.60;47.72;;;;;;;4.48;95.85;101686.44;5012873;28;20862;-71
2021/03/10 07:57:15;;;;;;;82.07;48.22;;;;;;;4.59;95.61;101679.53;4995229;28;20037;-71
2021/03/10 07:59:57;;;;;;;86.72;47.95;;;;;;;4.59;95.65;101676.06;5008632;28;20437;-71
2021/03/10 08:02:24;;;;;;;78.20;47.08;;;;;;;4.36;95.82;101637.81;5002171;28;20042;-72
2021/03/10 08:04:55;;;;;;;83.35;46.53;;;;;;;4.43;95.72;101639.13;5012534;28;20037;-72
2021/03/10 08:07:22;;;;;;;81.70;46.80;;;;;;;4.76;94.48;101675.00;5003699;28;20036;-71
2021/03/10 08:09:49;;;;;;;74.00;44.63;;;;;;;4.81;94.76;101678.25;4998746;28;20042;-71
2021/03/10 08:12:15;;;;;;;74.85;45.38;;;;;;;4.86;94.38;101677.94;4999916;28;20033;-73
2021/03/10 08:14:43;;;;;;;76.88;45.38;;;;;;;4.91;94.45;101675.84;4996013;28;20351;-73
2021/03/10 08:17:19;;;;;;;72.22;45.25;;;;;;;4.93;94.23;101676.59;5019321;28;20523;-72
2021/03/10 08:20:10;;;;;;;77.13;45.78;;;;;;;5.02;93.96;101673.38;5005958;28;20492;-72
2021/03/10 08:22:36;;;;;;;73.72;46.15;;;;;;;5.00;94.57;101670.00;5004012;28;20410;-72
2021/03/10 08:25:04;;;;;;;75.93;44.97;;;;;;;4.77;94.67;101626.47;5000829;28;20052;-72
2021/03/10 08:27:33;;;;;;;78.93;45.07;;;;;;;5.01;93.99;101663.75;5006040;28;20591;-72
2021/03/10 08:30:00;;;;;;;75.80;45.85;;;;;;;5.04;94.12;101660.06;5007867;28;20025;-72
2021/03/10 08:32:30;;;;;;;74.07;44.85;;;;;;;5.13;93.97;101648.88;5012697;28;20128;-72
2021/03/10 08:35:15;;;;;;;70.38;43.75;;;;;;;5.26;93.52;101656.91;5001987;28;20060;-73
2021/03/10 08:37:42;;;;;;;77.07;43.22;;;;;;;5.30;93.59;101668.13;5007008;28;20083;-72
2021/03/10 08:40:10;;;;;;;72.68;43.28;;;;;;;5.31;92.93;101654.78;5008930;28;20069;-72
2021/03/10 08:42:36;;;;;;;76.30;44.08;;;;;;;5.27;93.54;101655.97;5007320;28;20042;-73
2021/03/10 08:45:02;;;;;;;79.25;45.83;;;;;;;5.32;93.35;101658.31;5001472;28;20578;-69
2021/03/10 08:47:29;;;;;;;70.47;42.75;;;;;;;5.40;93.01;101661.31;5001354;28;20034;-73
2021/03/10 08:49:59;;;;;;;73.32;42.50;;;;;;;5.29;93.00;101651.44;4998516;28;20500;-73
2021/03/10 08:52:26;;;;;;;69.82;41.63;;;;;;;5.30;93.49;101639.88;4996965;28;20158;-69
2021/03/10 08:54:57;;;;;;;67.43;41.53;;;;;;;5.47;92.66;101649.38;5003647;28;20034;-69
2021/03/10 08:57:25;;;;;;;72.25;42.20;;;;;;;5.50;92.87;101643.03;5000156;28;20037;-69
2021/03/10 08:59:51;;;;;;;68.03;41.83;;;;;;;5.42;92.67;101619.69;5015299;28;20091;-69
2021/03/10 09:02:24;;;;;;;72.45;43.25;;;;;;;5.43;92.36;101615.28;5013645;28;20038;-69
2021/03/10 09:04:50;;;;;;;70.28;40.95;;;;;;;5.60;92.54;101627.38;4999853;28;20164;-69
2021/03/10 09:07:18;;;;;;;69.07;41.45;;;;;;;5.66;91.73;101624.31;4995021;28;20029;-69
2021/03/10 09:09:44;;;;;;;66.87;40.97;;;;;;;5.46;92.02;101605.31;4993758;28;20049;-69
2021/03/10 09:12:12;;;;;;;68.55;38.63;;;;;;;5.66;92.31;101621.66;4996424;28;20643;-69
2021/03/10 09:14:37;;;;;;;65.75;40.53;;;;;;;5.76;91.97;101619.25;4993359;28;20025;-69
2021/03/10 09:17:03;;;;;;;69.60;39.83;;;;;;;5.69;91.00;101605.59;4991879;28;20061;-72
2021/03/10 09:19:30;;;;;;;65.10;40.00;;;;;;;5.83;91.00;101613.47;4989985;28;20032;-73
2021/03/10 09:22:22;;;;;;;65.85;40.13;;;;;;;5.89;91.60;101606.06;4994194;28;20123;-73
2021/03/10 09:25:01;;;;;;;64.97;40.03;;;;;;;5.95;90.64;101605.63;4995482;28;20030;-73
2021/03/10 09:27:29;;;;;;;64.88;38.22;;;;;;;5.90;90.15;101590.03;4995854;28;20124;-73
2021/03/10 09:29:57;;;;;;;62.95;39.03;;;;;;;6.04;90.60;101604.19;5008585;28;20029;-73
2021/03/10 09:32:24;;;;;;;61.05;36.55;;;;;;;6.00;89.58;101590.31;4992917;28;20033;-73
2021/03/10 09:34:52;;;;;;;56.97;36.25;;;;;;;5.96;88.85;101575.53;4994766;28;20022;-73
2021/03/10 09:37:23;;;;;;;57.72;36.45;;;;;;;6.19;88.51;101597.84;4995139;28;20037;-72
2021/03/10 09:39:50;;;;;;;53.88;33.42;;;;;;;6.06;87.52;101562.53;4997559;28;20081;-73
2021/03/10 09:42:16;;;;;;;50.97;32.60;;;;;;;6.36;87.25;101590.53;4995209;28;20071;-69
2021/03/10 09:44:51;;;;;;;48.22;33.65;;;;;;;6.13;86.67;101551.41;4995101;28;20381;-69
2021/03/10 09:47:23;;;;;;;52.63;32.53;;;;;;;6.40;85.52;101584.91;4996158;28;20120;-69
2021/03/10 09:49:51;;;;;;;48.20;32.03;;;;;;;6.47;84.93;101582.66;4994634;28;20268;-69
2021/03/10 09:52:17;;;;;;;;;;;;;;;6.54;84.17;101586.56;4978778;28;20033;-69
2021/03/10 09:54:54;;;;;;;46.38;29.75;;;;;;;6.47;83.86;101566.75;4994488;28;19983;-73
2021/03/10 09:57:24;;;;;;;47.50;30.60;;;;;;;6.70;84.07;101580.16;4994340;28;20060;-73
2021/03/10 09:59:50;;;;;;;48.28;30.42;;;;;;;6.64;83.70;101546.16;4995273;28;20044;-73
2021/03/10 10:02:16;;;;;;;46.60;30.13;;;;;;;6.95;84.23;101571.31;4994594;28;20038;-73
2021/03/10 10:04:42;;;;;;;53.72;31.20;;;;;;;6.69;82.42;101494.47;4996881;28;20049;-73
2021/03/10 10:07:12;;;;;;;45.40;29.08;;;;;;;7.24;81.79;101581.59;4994947;28;20037;-73
2021/03/10 10:09:37;;;;;;;46.70;28.25;;;;;;;7.26;81.77;101577.00;5008682;28;20072;-73
2021/03/10 10:12:04;;;;;;;43.45;28.10;;;;;;;7.31;81.09;101588.13;4995471;28;20037;-73
2021/03/10 10:14:29;;;;;;;41.97;28.33;;;;;;;7.46;80.41;101577.34;5006829;28;20437;-73
2021/03/10 10:16:55;;;;;;;41.65;28.27;;;;;;;7.30;80.21;101549.25;4987917;28;20088;-73
2021/03/10 10:19:20;;;;;;;42.97;27.98;;;;;;;7.42;79.96;101555.47;4993646;28;20092;-73
2021/03/10 10:21:48;;;;;;;40.38;27.98;;;;;;;7.27;80.34;101543.34;4991195;28;20045;-73
2021/03/10 10:24:18;;;;;;;40.95;28.20;;;;;;;7.57;79.93;101573.88;4991828;28;20374;-73
2021/03/10 10:26:43;;;;;;;41.10;27.52;;;;;;;7.62;79.33;101567.25;4992647;28;20030;-74
2021/03/10 10:29:09;;;;;;;40.95;27.92;;;;;;;7.58;80.04;101554.31;4990814;28;20372;-73
2021/03/10 10:31:35;;;;;;;42.97;27.40;;;;;;;7.38;79.92;101505.38;4990958;28;20103;-77
2021/03/10 10:34:01;;;;;;;43.88;26.70;;;;;;;7.68;78.73;101554.44;4989740;28;20022;-74
2021/03/10 10:36:26;;;;;;;43.67;27.73;;;;;;;7.75;78.67;101553.03;4991539;28;20052;-73
2021/03/10 10:38:52;;;;;;;40.35;28.08;;;;;;;7.78;78.93;101550.16;4993006;28;20042;-73
2021/03/10 10:41:17;;;;;;;41.17;27.50;;;;;;;7.73;78.58;101549.66;5000413;28;20026;-72
2021/03/10 10:43:43;;;;;;;37.55;25.58;;;;;;;7.80;78.04;101553.53;4994636;28;20037;-72
2021/03/10 10:46:08;;;;;;;41.05;26.27;;;;;;;7.80;78.20;101532.28;4993065;28;20227;-73
2021/03/10 10:48:34;;;;;;;44.05;26.70;;;;;;;7.90;76.76;101519.97;4996158;28;20030;-73
2021/03/10 10:50:59;;;;;;;36.17;25.25;;;;;;;7.71;76.89;101495.78;4996675;28;20041;-73
2021/03/10 10:53:25;;;;;;;37.92;25.00;;;;;;;8.03;76.12;101525.16;4993696;28;20544;-73
2021/03/10 10:55:50;;;;;;;41.75;25.77;;;;;;;8.06;76.45;101526.75;5002028;28;20030;-73
2021/03/10 10:58:17;;;;;;;37.47;25.67;;;;;;;7.96;75.36;101481.44;4995896;28;20038;-73
2021/03/10 11:00:42;;;;;;;35.65;25.73;;;;;;;8.32;75.59;101515.88;4993486;28;20038;-73
2021/03/10 11:03:08;;;;;;;37.72;24.98;;;;;;;8.26;74.69;101515.38;4994139;28;20041;-68
2021/03/10 11:05:34;;;;;;;42.13;26.38;;;;;;;8.11;75.56;101490.00;4993361;28;20034;-69
2021/03/10 11:07:59;;;;;;;40.60;27.30;;;;;;;8.18;76.11;101483.25;4995786;28;20046;-68
2021/03/10 11:10:25;;;;;;;37.75;25.45;;;;;;;8.39;75.61;101487.81;4989350;28;20565;-68
2021/03/10 11:12:50;;;;;;;35.92;24.77;;;;;;;8.57;74.50;101507.66;4993832;28;20489;-69
2021/03/10 11:15:16;;;;;;;36.72;25.15;;;;;;;8.60;74.28;101505.72;4993516;28;20046;-68
2021/03/10 11:17:42;;;;;;;34.97;24.33;;;;;;;8.62;73.80;101503.78;4994394;28;20862;-69
2021/03/10 11:20:08;;;;;;;35.60;25.40;;;;;;;8.66;74.25;101502.56;5000034;28;20026;-72